createdAt,value
2019-03-08T00:01:54.164Z,6.30
2019-03-08T00:04:23.861Z,6.30
2019-03-08T00:06:53.645Z,6.30
2019-03-08T00:09:23.542Z,6.30
2019-03-08T00:11:53.406Z,6.30
2019-03-08T00:14:23.102Z,6.30
2019-03-08T00:21:01.595Z,6.40
2019-03-08T00:23:31.229Z,6.40
2019-03-08T00:29:24.544Z,6.40
2019-03-08T00:31:54.228Z,6.50
2019-03-08T00:34:23.972Z,6.50
2019-03-08T00:36:53.757Z,6.50
2019-03-08T00:39:23.577Z,6.50
2019-03-08T00:41:53.711Z,6.50
2019-03-08T00:44:23.895Z,6.60
2019-03-08T00:46:53.708Z,6.60
2019-03-08T00:49:23.448Z,6.60
2019-03-08T00:51:53.155Z,6.70
2019-03-08T00:54:22.864Z,6.70
2019-03-08T00:56:52.587Z,6.80
2019-03-08T00:59:22.274Z,6.80
2019-03-08T01:01:52.095Z,6.90
2019-03-08T01:04:22.900Z,7.00
2019-03-08T01:06:52.631Z,7.00
2019-03-08T01:09:22.731Z,7.00
2019-03-08T01:11:52.399Z,7.00
2019-03-08T01:14:22.052Z,7.00
2019-03-08T01:16:52.172Z,7.00
2019-03-08T01:19:21.799Z,6.90
2019-03-08T01:21:51.640Z,6.90
2019-03-08T01:24:21.299Z,6.90
2019-03-08T01:26:51.102Z,6.90
2019-03-08T01:29:20.967Z,6.80
2019-03-08T01:31:50.844Z,6.80
2019-03-08T01:34:20.728Z,6.80
2019-03-08T01:36:50.428Z,6.80
2019-03-08T01:39:20.084Z,6.80
2019-03-08T01:41:49.979Z,6.80
2019-03-08T01:44:19.691Z,6.70
2019-03-08T01:46:49.435Z,6.70
2019-03-08T01:49:19.334Z,6.70
2019-03-08T01:51:48.967Z,6.60
2019-03-08T01:54:18.627Z,6.60
2019-03-08T01:56:48.555Z,6.50
2019-03-08T01:59:18.283Z,6.50
2019-03-08T02:01:48.077Z,6.40
2019-03-08T02:04:17.876Z,6.40
2019-03-08T02:06:47.700Z,6.40
2019-03-08T02:09:17.580Z,6.30
2019-03-08T02:11:47.240Z,6.30
2019-03-08T02:14:16.975Z,6.20
2019-03-08T02:16:47.801Z,6.20
2019-03-08T02:19:17.547Z,6.20
2019-03-08T02:21:47.233Z,6.10
2019-03-08T02:24:16.907Z,6.10
2019-03-08T02:26:46.743Z,6.10
2019-03-08T02:29:16.635Z,6.10
2019-03-08T02:31:46.427Z,6.10
2019-03-08T02:34:16.208Z,6.10
2019-03-08T02:36:45.847Z,6.10
2019-03-08T02:39:15.655Z,6.20
2019-03-08T02:41:45.691Z,6.10
2019-03-08T02:44:15.494Z,6.10
2019-03-08T02:46:45.422Z,6.10
2019-03-08T02:49:15.228Z,6.10
2019-03-08T02:51:45.906Z,6.10
2019-03-08T02:54:15.583Z,6.10
2019-03-08T02:56:45.406Z,6.10
2019-03-08T02:59:16.135Z,6.10
2019-03-08T03:01:45.863Z,6.10
2019-03-08T03:04:15.550Z,6.10
2019-03-08T03:06:45.375Z,6.10
2019-03-08T03:09:15.359Z,6.10
2019-03-08T03:11:45.134Z,6.10
2019-03-08T03:14:14.803Z,6.00
2019-03-08T03:16:44.504Z,6.00
2019-03-08T03:19:15.243Z,6.00
2019-03-08T03:21:44.984Z,6.00
2019-03-08T03:24:14.664Z,6.00
2019-03-08T03:26:44.400Z,6.00
2019-03-08T03:29:14.096Z,6.00
2019-03-08T03:31:43.971Z,6.00
2019-03-08T03:34:13.948Z,6.00
2019-03-08T03:36:43.737Z,6.00
2019-03-08T03:39:13.535Z,6.00
2019-03-08T03:41:43.242Z,6.00
2019-03-08T03:44:13.040Z,6.00
2019-03-08T03:46:42.762Z,6.00
2019-03-08T03:49:14.767Z,6.00
2019-03-08T03:51:44.447Z,6.00
2019-03-08T03:54:14.525Z,6.00
2019-03-08T03:56:44.281Z,6.00
2019-03-08T03:59:14.205Z,6.00
2019-03-08T04:01:47.160Z,6.00
2019-03-08T04:04:16.867Z,6.00
2019-03-08T04:06:47.623Z,6.00
2019-03-08T04:09:17.318Z,6.00
2019-03-08T04:11:47.068Z,6.00
2019-03-08T04:14:16.817Z,6.00
2019-03-08T04:16:46.495Z,6.00
2019-03-08T04:19:16.175Z,6.00
2019-03-08T04:21:45.936Z,6.00
2019-03-08T04:24:15.671Z,6.10
2019-03-08T04:26:45.431Z,6.00
2019-03-08T04:29:15.430Z,6.00
2019-03-08T04:31:45.231Z,6.00
2019-03-08T04:34:14.971Z,6.00
2019-03-08T04:36:44.636Z,6.00
2019-03-08T04:39:14.364Z,6.10
2019-03-08T04:41:44.092Z,6.10
2019-03-08T04:44:13.783Z,6.10
2019-03-08T04:46:43.495Z,6.10
2019-03-08T04:49:18.891Z,6.00
2019-03-08T04:51:49.567Z,6.00
2019-03-08T04:54:19.303Z,6.10
2019-03-08T04:56:49.091Z,6.10
2019-03-08T04:59:18.836Z,6.10
2019-03-08T05:01:48.524Z,6.10
2019-03-08T05:04:18.215Z,6.10
2019-03-08T05:06:47.960Z,6.10
2019-03-08T05:09:17.987Z,6.10
2019-03-08T05:11:47.655Z,6.10
2019-03-08T05:14:17.358Z,6.10
2019-03-08T05:16:47.094Z,6.10
2019-03-08T05:19:16.979Z,6.10
2019-03-08T05:21:47.690Z,6.10
2019-03-08T05:24:17.430Z,6.20
2019-03-08T05:26:47.184Z,6.20
2019-03-08T05:29:16.847Z,6.20
2019-03-08T05:31:46.596Z,6.20
2019-03-08T05:34:16.273Z,6.20
2019-03-08T05:36:46.100Z,6.20
2019-03-08T05:39:15.771Z,6.20
2019-03-08T05:41:47.491Z,6.20
2019-03-08T05:44:17.152Z,6.30
2019-03-08T05:46:46.828Z,6.30
2019-03-08T05:49:16.804Z,6.30
2019-03-08T05:51:46.484Z,6.30
2019-03-08T05:54:16.206Z,6.30
2019-03-08T05:56:45.984Z,6.30
2019-03-08T05:59:15.741Z,6.30
2019-03-08T06:01:45.488Z,6.30
2019-03-08T06:04:15.239Z,6.30
2019-03-08T06:06:45.082Z,6.30
2019-03-08T06:09:15.019Z,6.30
2019-03-08T06:11:44.708Z,6.30
2019-03-08T06:14:14.413Z,6.30
2019-03-08T06:16:44.212Z,6.30
2019-03-08T06:19:13.931Z,6.40
2019-03-08T06:21:43.627Z,6.30
2019-03-08T06:24:13.740Z,6.30
2019-03-08T06:26:43.379Z,6.30
2019-03-08T06:29:14.579Z,6.40
2019-03-08T06:31:44.524Z,6.30
2019-03-08T06:34:14.228Z,6.40
2019-03-08T06:36:43.945Z,6.40
2019-03-08T06:39:13.776Z,6.40
2019-03-08T06:41:43.561Z,6.40
2019-03-08T06:44:13.271Z,6.40
2019-03-08T06:46:43.206Z,6.40
2019-03-08T06:49:12.907Z,6.40
2019-03-08T06:51:42.599Z,6.40
2019-03-08T06:54:12.323Z,6.40
2019-03-08T06:56:42.141Z,6.40
2019-03-08T06:59:20.207Z,6.40
2019-03-08T07:01:49.936Z,6.40
2019-03-08T07:04:19.726Z,6.40
2019-03-08T07:06:49.455Z,6.40
2019-03-08T07:09:19.254Z,6.40
2019-03-08T07:11:49.389Z,6.40
2019-03-08T07:14:19.139Z,6.30
2019-03-08T07:16:48.807Z,6.20
2019-03-08T07:19:18.720Z,6.10
2019-03-08T07:22:07.607Z,6.00
2019-03-08T07:25:08.430Z,5.90
2019-03-08T07:27:56.350Z,5.90
2019-03-08T07:30:34.923Z,5.90
2019-03-08T07:33:13.506Z,5.80
2019-03-08T07:36:00.959Z,5.80
2019-03-08T07:38:44.239Z,5.70
2019-03-08T07:41:37.717Z,5.70
2019-03-08T07:44:25.107Z,5.70
2019-03-08T07:47:19.859Z,5.60
2019-03-08T07:50:20.887Z,5.60
2019-03-08T07:53:06.262Z,5.60
2019-03-08T07:55:46.500Z,5.60
2019-03-08T07:58:26.522Z,5.60
2019-03-08T08:01:21.279Z,5.60
2019-03-08T08:04:00.444Z,5.70
2019-03-08T08:06:44.896Z,5.60
2019-03-08T08:09:27.568Z,5.70
2019-03-08T08:12:22.483Z,5.70
2019-03-08T08:15:23.404Z,5.70
2019-03-08T08:18:24.466Z,5.70
2019-03-08T08:21:07.532Z,5.80
2019-03-08T08:23:56.295Z,5.80
2019-03-08T08:26:48.194Z,5.80
2019-03-08T08:29:43.512Z,5.70
2019-03-08T08:32:26.196Z,5.80
2019-03-08T08:35:12.037Z,5.70
2019-03-08T08:38:10.152Z,5.80
2019-03-08T08:41:10.924Z,5.80
2019-03-08T08:44:00.759Z,5.80
2019-03-08T08:46:52.158Z,5.80
2019-03-08T08:49:54.856Z,5.80
2019-03-08T08:52:46.346Z,5.80
2019-03-08T08:55:35.721Z,5.80
2019-03-08T08:58:18.680Z,5.90
2019-03-08T09:01:06.275Z,5.90
2019-03-08T09:03:44.983Z,5.90
2019-03-08T09:06:40.983Z,5.90
2019-03-08T09:09:20.398Z,6.00
2019-03-08T09:11:59.942Z,6.00
2019-03-08T09:14:34.052Z,6.00
2019-03-08T09:17:22.092Z,6.00
2019-03-08T09:20:10.059Z,6.10
2019-03-08T09:22:55.477Z,6.10
2019-03-08T09:25:31.606Z,6.10
2019-03-08T09:28:18.838Z,6.20
2019-03-08T09:30:58.133Z,6.20
2019-03-08T09:33:35.276Z,6.30
2019-03-08T09:36:13.320Z,6.30
2019-03-08T09:38:50.211Z,6.30
2019-03-08T09:41:24.923Z,6.30
2019-03-08T09:44:12.839Z,6.40
2019-03-08T09:46:49.332Z,6.50
2019-03-08T09:49:37.064Z,6.50
2019-03-08T09:52:26.759Z,6.50
2019-03-08T09:55:05.572Z,6.60
2019-03-08T09:57:44.821Z,6.60
2019-03-08T10:00:37.143Z,6.60
2019-03-08T10:03:20.347Z,6.70
2019-03-08T10:06:12.221Z,6.70
2019-03-08T10:08:47.743Z,6.70
2019-03-08T10:11:29.147Z,6.80
2019-03-08T10:14:16.832Z,6.80
2019-03-08T10:16:53.451Z,6.90
2019-03-08T10:19:46.929Z,6.90
2019-03-08T10:22:25.913Z,7.00
2019-03-08T10:25:11.716Z,7.00
2019-03-08T10:27:57.718Z,7.10
2019-03-08T10:30:46.538Z,7.10
2019-03-08T10:33:46.206Z,7.20
2019-03-08T10:36:41.921Z,7.20
2019-03-08T10:39:42.924Z,7.20
2019-03-08T10:42:23.241Z,7.20
2019-03-08T10:44:59.295Z,7.30
2019-03-08T10:47:37.365Z,7.40
2019-03-08T10:50:20.748Z,7.40
2019-03-08T10:52:57.051Z,7.50
2019-03-08T10:55:44.235Z,7.50
2019-03-08T10:58:31.431Z,7.60
2019-03-08T11:01:29.305Z,7.60
2019-03-08T11:04:16.896Z,7.70
2019-03-08T11:06:54.964Z,7.70
2019-03-08T11:09:42.319Z,7.80
2019-03-08T11:12:29.733Z,7.80
2019-03-08T11:15:24.694Z,7.90
2019-03-08T11:18:13.117Z,7.90
2019-03-08T11:21:05.769Z,8.00
2019-03-08T11:23:40.823Z,8.00
2019-03-08T11:26:24.612Z,8.00
2019-03-08T11:29:12.218Z,8.00
2019-03-08T11:31:50.923Z,8.00
2019-03-08T11:34:31.955Z,8.00
2019-03-08T11:37:19.483Z,8.00
2019-03-08T11:40:14.493Z,8.00
2019-03-08T11:42:50.933Z,7.90
2019-03-08T11:45:32.379Z,7.90
2019-03-08T11:48:25.208Z,7.90
2019-03-08T11:51:18.465Z,7.90
2019-03-08T11:54:16.170Z,7.90
2019-03-08T11:56:59.398Z,8.00
2019-03-08T11:59:39.715Z,8.00
2019-03-08T12:02:38.113Z,8.10
2019-03-08T12:05:36.427Z,8.20
2019-03-08T12:08:17.181Z,8.30
2019-03-08T12:11:01.307Z,8.30
2019-03-08T12:13:48.991Z,8.30
2019-03-08T12:16:39.213Z,8.40
2019-03-08T12:19:18.119Z,8.40
2019-03-08T12:22:09.723Z,8.30
2019-03-08T12:24:54.340Z,8.30
2019-03-08T12:27:37.628Z,8.20
2019-03-08T12:30:26.069Z,8.30
2019-03-08T12:33:12.195Z,8.30
2019-03-08T12:35:50.632Z,8.30
2019-03-08T12:38:42.650Z,8.20
2019-03-08T12:41:17.795Z,8.20
2019-03-08T12:44:25.206Z,8.20
2019-03-08T12:47:12.514Z,8.30
2019-03-08T12:50:01.408Z,8.40
2019-03-08T12:52:44.194Z,8.40
2019-03-08T12:55:22.588Z,8.40
2019-03-08T12:58:20.593Z,8.40
2019-03-08T13:01:13.424Z,8.40
2019-03-08T13:04:11.419Z,8.40
2019-03-08T13:06:54.116Z,8.40
2019-03-08T13:09:33.862Z,8.40
2019-03-08T13:12:03.627Z,8.40
2019-03-08T13:14:33.367Z,8.40
2019-03-08T13:17:03.150Z,8.40
2019-03-08T13:19:32.962Z,8.40
2019-03-08T13:22:02.689Z,8.50
2019-03-08T13:24:32.418Z,8.50
2019-03-08T13:27:02.220Z,8.50
2019-03-08T13:29:32.124Z,8.60
2019-03-08T13:32:02.944Z,8.60
2019-03-08T13:34:32.852Z,8.60
2019-03-08T13:37:02.587Z,8.60
2019-03-08T13:39:32.299Z,8.60
2019-03-08T13:42:02.128Z,8.60
2019-03-08T13:44:32.235Z,8.60
2019-03-08T13:47:05.173Z,8.60
2019-03-08T13:49:34.843Z,8.50
2019-03-08T13:52:05.266Z,8.40
2019-03-08T13:54:36.169Z,8.40
2019-03-08T13:57:05.906Z,8.40
2019-03-08T13:59:35.919Z,8.40
2019-03-08T14:02:05.663Z,8.40
2019-03-08T14:04:35.451Z,8.30
2019-03-08T14:07:05.287Z,8.20
2019-03-08T14:09:35.005Z,8.10
2019-03-08T14:12:05.059Z,8.10
2019-03-08T14:14:34.808Z,8.20
2019-03-08T14:17:04.962Z,8.20
2019-03-08T14:19:34.747Z,8.20
2019-03-08T14:22:05.205Z,8.20
2019-03-08T14:24:34.962Z,8.20
2019-03-08T14:27:06.015Z,8.10
2019-03-08T14:29:35.920Z,8.10
2019-03-08T14:32:08.622Z,8.00
2019-03-08T14:34:38.343Z,8.00
2019-03-08T14:37:08.039Z,7.90
2019-03-08T14:39:40.430Z,7.80
2019-03-08T14:42:28.399Z,7.70
2019-03-08T14:45:07.692Z,7.60
2019-03-08T14:47:39.960Z,7.60
2019-03-08T14:50:11.631Z,7.50
2019-03-08T14:52:41.444Z,7.50
2019-03-08T14:55:13.962Z,7.30
2019-03-08T14:57:43.802Z,7.30
2019-03-08T15:00:16.540Z,7.20
2019-03-08T15:02:48.538Z,7.20
2019-03-08T15:05:19.180Z,7.20
2019-03-08T15:07:49.471Z,7.10
2019-03-08T15:10:20.061Z,7.10
2019-03-08T15:12:49.920Z,7.00
2019-03-08T15:15:19.834Z,6.90
2019-03-08T15:17:53.437Z,6.90
2019-03-08T15:20:21.106Z,6.90
2019-03-08T15:22:51.270Z,6.90
2019-03-08T15:25:21.016Z,6.80
2019-03-08T15:27:50.783Z,6.80
2019-03-08T15:30:21.586Z,6.90
2019-03-08T15:32:51.323Z,6.80
2019-03-08T15:35:21.202Z,6.80
2019-03-08T15:37:51.057Z,6.80
2019-03-08T15:40:21.937Z,6.80
2019-03-08T15:42:51.900Z,6.80
2019-03-08T15:45:21.659Z,6.70
2019-03-08T15:47:51.587Z,6.70
2019-03-08T15:50:22.371Z,6.70
2019-03-08T15:52:52.095Z,6.70
2019-03-08T15:55:23.246Z,6.60
2019-03-08T15:57:53.110Z,6.60
2019-03-08T16:00:23.023Z,6.60
2019-03-08T16:02:54.592Z,6.60
2019-03-08T16:05:28.266Z,6.50
2019-03-08T16:07:57.771Z,6.40
2019-03-08T16:10:27.409Z,6.40
2019-03-08T16:12:57.279Z,6.30
2019-03-08T16:15:27.076Z,6.30
2019-03-08T16:17:56.798Z,6.20
2019-03-08T16:20:26.666Z,6.20
2019-03-08T16:22:56.674Z,6.20
2019-03-08T16:25:26.479Z,6.20
2019-03-08T16:27:56.292Z,6.20
2019-03-08T16:30:30.619Z,6.10
2019-03-08T16:33:16.399Z,6.10
2019-03-08T16:35:58.163Z,6.10
2019-03-08T16:38:43.133Z,6.00
2019-03-08T16:41:30.243Z,6.00
2019-03-08T16:44:13.459Z,6.00
2019-03-08T16:46:53.319Z,6.00
2019-03-08T16:49:33.327Z,5.90
2019-03-08T16:52:23.348Z,5.90
2019-03-08T16:55:01.939Z,5.80
2019-03-08T16:57:53.603Z,5.80
2019-03-08T17:00:30.393Z,5.80
2019-03-08T17:03:12.372Z,5.70
2019-03-08T17:06:00.491Z,5.70
2019-03-08T17:08:47.673Z,5.70
2019-03-08T17:11:25.822Z,5.60
2019-03-08T17:14:24.031Z,5.60
2019-03-08T17:17:03.095Z,5.50
2019-03-08T17:19:42.062Z,5.50
2019-03-08T17:22:18.595Z,5.50
2019-03-08T17:25:00.683Z,5.50
2019-03-08T17:27:45.524Z,5.40
2019-03-08T17:30:53.339Z,5.40
2019-03-08T17:33:45.511Z,5.30
2019-03-08T17:36:43.505Z,5.30
2019-03-08T17:39:21.068Z,5.20
2019-03-08T17:42:18.840Z,5.20
2019-03-08T17:45:16.596Z,5.20
2019-03-08T17:48:20.741Z,5.20
2019-03-08T17:51:13.122Z,5.20
2019-03-08T17:54:06.914Z,5.20
2019-03-08T17:57:04.316Z,5.20
2019-03-08T17:59:56.177Z,5.10
2019-03-08T18:02:31.221Z,5.10
2019-03-08T18:05:07.059Z,5.20
2019-03-08T18:07:56.028Z,5.20
2019-03-08T18:10:42.090Z,5.20
2019-03-08T18:13:36.959Z,5.20
2019-03-08T18:16:21.714Z,5.10
2019-03-08T18:19:10.010Z,5.10
2019-03-08T18:21:57.882Z,5.00
2019-03-08T18:24:38.348Z,5.00
2019-03-08T18:27:31.772Z,5.00
2019-03-08T18:30:31.637Z,5.00
2019-03-08T18:33:33.122Z,5.00
2019-03-08T18:36:29.193Z,5.00
2019-03-08T18:39:10.084Z,5.10
2019-03-08T18:41:50.217Z,5.10
2019-03-08T18:44:26.862Z,5.10
2019-03-08T18:47:07.455Z,5.10
2019-03-08T18:49:47.290Z,5.10
2019-03-08T18:52:34.982Z,5.10
2019-03-08T18:55:15.880Z,5.10
2019-03-08T18:57:54.108Z,5.10
2019-03-08T19:01:01.137Z,5.00
2019-03-08T19:03:56.217Z,5.00
2019-03-08T19:06:37.144Z,5.00
2019-03-08T19:09:13.932Z,4.90
2019-03-08T19:11:49.686Z,4.90
2019-03-08T19:14:37.108Z,4.80
2019-03-08T19:17:25.952Z,4.70
2019-03-08T19:20:13.587Z,4.70
2019-03-08T19:23:01.148Z,4.60
2019-03-08T19:25:39.100Z,4.50
2019-03-08T19:28:23.200Z,4.50
2019-03-08T19:31:05.205Z,4.50
2019-03-08T19:34:09.499Z,4.40
2019-03-08T19:36:58.351Z,4.40
2019-03-08T19:39:46.129Z,4.40
2019-03-08T19:42:47.240Z,4.40
2019-03-08T19:45:48.547Z,4.40
2019-03-08T19:48:40.456Z,4.40
2019-03-08T19:51:22.008Z,4.30
2019-03-08T19:53:57.811Z,4.30
2019-03-08T19:56:44.358Z,4.30
2019-03-08T19:59:25.804Z,4.30
2019-03-08T20:02:19.070Z,4.30
2019-03-08T20:05:06.901Z,4.20
2019-03-08T20:07:55.493Z,4.30
2019-03-08T20:10:43.164Z,4.20
2019-03-08T20:13:30.667Z,4.20
2019-03-08T20:16:28.539Z,4.20
2019-03-08T20:19:16.692Z,4.20
2019-03-08T20:22:08.488Z,4.20
2019-03-08T20:24:45.146Z,4.10
2019-03-08T20:27:26.987Z,4.10
2019-03-08T20:30:10.838Z,4.00
2019-03-08T20:32:50.598Z,4.00
2019-03-08T20:35:28.872Z,3.90
2019-03-08T20:38:17.736Z,3.90
2019-03-08T20:41:05.391Z,3.90
2019-03-08T20:43:46.537Z,3.90
2019-03-08T20:46:24.165Z,3.90
2019-03-08T20:48:54.386Z,3.90
2019-03-08T20:51:24.155Z,3.80
2019-03-08T20:53:53.973Z,3.90
2019-03-08T20:56:23.871Z,3.90
2019-03-08T20:58:53.587Z,3.90
2019-03-08T21:01:24.617Z,3.80
2019-03-08T21:03:54.280Z,3.80
2019-03-08T21:06:25.955Z,3.80
2019-03-08T21:08:55.658Z,3.80
2019-03-08T21:11:25.446Z,3.80
2019-03-08T21:13:55.357Z,3.70
2019-03-08T21:16:25.111Z,3.70
2019-03-08T21:18:54.907Z,3.70
2019-03-08T21:21:25.769Z,3.70
2019-03-08T21:23:55.571Z,3.70
2019-03-08T21:26:25.439Z,3.70
2019-03-08T21:28:55.203Z,3.60
2019-03-08T21:31:24.871Z,3.60
2019-03-08T21:33:54.606Z,3.60
2019-03-08T21:36:24.562Z,3.60
2019-03-08T21:38:56.737Z,3.50
2019-03-08T21:41:26.721Z,3.50
2019-03-08T21:43:56.601Z,3.50
2019-03-08T21:46:26.503Z,3.40
2019-03-08T21:48:56.274Z,3.40
2019-03-08T21:51:26.074Z,3.40
2019-03-08T21:53:55.853Z,3.40
2019-03-08T21:56:25.675Z,3.40
2019-03-08T21:58:55.388Z,3.40
2019-03-08T22:01:25.103Z,3.40
2019-03-08T22:04:00.206Z,3.40
2019-03-08T22:06:30.996Z,3.30
2019-03-08T22:09:24.404Z,3.40
2019-03-08T22:11:54.124Z,3.40
2019-03-08T22:14:23.923Z,3.40
2019-03-08T22:16:53.632Z,3.30
2019-03-08T22:19:23.549Z,3.40
2019-03-08T22:21:53.263Z,3.40
2019-03-08T22:24:23.061Z,3.40
2019-03-08T22:26:53.861Z,3.50
2019-03-08T22:29:23.668Z,3.50
2019-03-08T22:31:53.334Z,3.40
2019-03-08T22:34:23.071Z,3.40
2019-03-08T22:36:52.865Z,3.50
2019-03-08T22:39:22.647Z,3.50
2019-03-08T22:41:52.384Z,3.50
2019-03-08T22:44:22.108Z,3.50
2019-03-08T22:46:51.794Z,3.60
2019-03-08T22:49:21.531Z,3.50
2019-03-08T22:51:52.323Z,3.60
2019-03-08T22:54:22.018Z,3.60
2019-03-08T22:56:51.767Z,3.50
2019-03-08T22:59:21.769Z,3.50
2019-03-08T23:01:53.679Z,3.30
2019-03-08T23:04:23.376Z,3.30
2019-03-08T23:06:53.060Z,3.20
2019-03-08T23:09:22.885Z,3.10
2019-03-08T23:11:52.984Z,3.10
2019-03-08T23:14:22.731Z,3.00
2019-03-08T23:16:52.488Z,3.00
2019-03-08T23:19:22.149Z,3.00
2019-03-08T23:21:51.899Z,3.10
2019-03-08T23:24:21.870Z,3.10
2019-03-08T23:27:22.986Z,3.20
2019-03-08T23:29:58.488Z,3.30
2019-03-08T23:32:37.742Z,3.30
2019-03-08T23:35:07.882Z,3.40
2019-03-08T23:37:37.599Z,3.40
2019-03-08T23:40:07.619Z,3.50
2019-03-08T23:42:37.340Z,3.60
2019-03-08T23:45:07.479Z,3.60
2019-03-08T23:47:37.167Z,3.70
2019-03-08T23:50:08.473Z,3.70
2019-03-08T23:52:38.387Z,3.70
2019-03-08T23:55:08.767Z,3.80
2019-03-08T23:57:38.534Z,3.80
